PWSweather.com
Personal Weather Stations
Station Observations

SkegnessGB

Lat: 53.147585, Lon: 0.345774

Elevation: 18

Station Type: Fine Offset WH3080

http://www.skegnessweather.info/

Latest ConditionsUpdated 5:40:00 PM GMT Tuesday, Jan 22, 2019
Currently Today's Max Today's Min Today's Average
Temperature 36.1°F2.3°C 41.2°F5.1°C 32.5°F0.3°C 37.6°F3.1°C
Dew Point 30.3°F-0.9°C 35.5°F1.9°C 28.2°F-2.1°C 32.3°F0.2°C
Winds 1.5 mph SSW2.4 kmh SSW 22.9 mph -36.9 kmh - - 8.4 mph 13.5 kmh
Wind Gusts 2.5 mph4.0 kmh 25.8 mph41.5 kmh - -
Humidity 79% 87% 71% 81%
Pressure 29.40 in995.6 mb 29.66 in1004.4 mb 29.40 in995.6 mb -
Precipitation - 0.14 in3.6 mm - -
Hour Temp Dew Point Humidity Winds Wind Gusts Pressure Precip Precip Rate Daily Precip Total
05:40 PM 36.1°F2.3°C 30.3°F-0.9°C 79% 1.5 mph SSW2.4 kmh SSW 2.5 mph4.0 kmh 29.40 in995.6 mb 0.01 in0.3 mm 0.00 in0.0 mm 0.14 in3.6 mm
05:30 PM 36.5°F2.5°C 30.3°F-0.9°C 78% 1.2 mph SW1.9 kmh SW 2.5 mph4.0 kmh 29.40 in995.6 mb 0.02 in0.5 mm 0.00 in0.0 mm 0.14 in3.6 mm
05:20 PM 36.9°F2.7°C 30.6°F-0.8°C 78% 0.9 mph SW1.4 kmh SW 1.7 mph2.7 kmh 29.40 in995.6 mb 0.02 in0.5 mm 0.00 in0.0 mm 0.14 in3.6 mm
05:10 PM 37.0°F2.8°C 30.8°F-0.7°C 78% 1.5 mph S2.4 kmh S 2.5 mph4.0 kmh 29.40 in995.6 mb 0.02 in0.5 mm 0.00 in0.0 mm 0.14 in3.6 mm
05:00 PM 37.2°F2.9°C 30.7°F-0.7°C 77% 1.5 mph S2.4 kmh S 2.5 mph4.0 kmh 29.40 in995.6 mb 0.02 in0.5 mm 0.00 in0.0 mm 0.14 in3.6 mm
04:50 PM 37.2°F2.9°C 30.3°F-0.9°C 76% 3.7 mph S6.0 kmh S 4.9 mph7.9 kmh 29.41 in995.9 mb 0.02 in0.5 mm 0.06 in1.5 mm 0.14 in3.6 mm
04:40 PM 38.1°F3.4°C 31.2°F-0.4°C 76% 4.0 mph S6.4 kmh S 5.9 mph9.5 kmh 29.41 in995.9 mb 0.01 in0.3 mm 0.06 in1.5 mm 0.13 in3.3 mm
04:30 PM 38.3°F3.5°C 31.4°F-0.3°C 76% 0.5 mph SW0.8 kmh SW 1.7 mph2.7 kmh 29.41 in995.9 mb 0.00 in0.0 mm 0.00 in0.0 mm 0.12 in3.0 mm
04:20 PM 38.5°F3.6°C 31.6°F-0.2°C 76% 1.0 mph SW1.6 kmh SW 1.7 mph2.7 kmh 29.41 in995.9 mb 0.00 in0.0 mm 0.00 in0.0 mm 0.12 in3.0 mm
04:10 PM 38.7°F3.7°C 31.7°F-0.2°C 76% 1.1 mph SSW1.8 kmh SSW 2.5 mph4.0 kmh 29.41 in995.9 mb 0.00 in0.0 mm 0.00 in0.0 mm 0.12 in3.0 mm
04:00 PM 39.0°F3.9°C 32.1°F0.1°C 76% 1.9 mph SW3.1 kmh SW 3.4 mph5.5 kmh 29.41 in995.9 mb 0.00 in0.0 mm 0.00 in0.0 mm 0.12 in3.0 mm
03:50 PM 39.0°F3.9°C 32.1°F0.1°C 76% 2.1 mph SW3.4 kmh SW 3.4 mph5.5 kmh 29.40 in995.6 mb 0.00 in0.0 mm 0.00 in0.0 mm 0.12 in3.0 mm
03:40 PM 39.2°F4.0°C 32.3°F0.2°C 76% 3.1 mph SSW5.0 kmh SSW 4.9 mph7.9 kmh 29.41 in995.9 mb 0.00 in0.0 mm 0.00 in0.0 mm 0.12 in3.0 mm
03:30 PM 39.2°F4.0°C 31.9°F-0.1°C 75% 4.4 mph W7.1 kmh W 4.9 mph7.9 kmh 29.41 in995.9 mb 0.00 in0.0 mm 0.00 in0.0 mm 0.12 in3.0 mm
03:20 PM 39.0°F3.9°C 31.4°F-0.3°C 74% 3.8 mph SW6.1 kmh SW 4.2 mph6.8 kmh 29.41 in995.9 mb 0.00 in0.0 mm 0.00 in0.0 mm 0.12 in3.0 mm
03:10 PM 39.2°F4.0°C 31.6°F-0.2°C 74% 3.3 mph S5.3 kmh S 4.2 mph6.8 kmh 29.41 in995.9 mb 0.00 in0.0 mm 0.00 in0.0 mm 0.12 in3.0 mm
03:00 PM 39.7°F4.3°C 31.8°F-0.1°C 73% 3.2 mph SW5.1 kmh SW 3.4 mph5.5 kmh 29.42 in996.3 mb 0.00 in0.0 mm 0.00 in0.0 mm 0.12 in3.0 mm
02:50 PM 40.1°F4.5°C 32.1°F0.1°C 73% 3.6 mph S5.8 kmh S 4.2 mph6.8 kmh 29.42 in996.3 mb 0.00 in0.0 mm 0.00 in0.0 mm 0.12 in3.0 mm
02:40 PM 40.5°F4.7°C 32.1°F0.1°C 72% 3.6 mph WSW5.8 kmh WSW 5.9 mph9.5 kmh 29.42 in996.3 mb 0.00 in0.0 mm 0.00 in0.0 mm 0.12 in3.0 mm
02:30 PM 40.6°F4.8°C 32.3°F0.2°C 72% 3.9 mph NW6.3 kmh NW 5.9 mph9.5 kmh 29.42 in996.3 mb 0.00 in0.0 mm 0.00 in0.0 mm 0.12 in3.0 mm
02:20 PM 40.6°F4.8°C 32.3°F0.2°C 72% 4.3 mph SSW6.9 kmh SSW 4.9 mph7.9 kmh 29.41 in995.9 mb 0.00 in0.0 mm 0.00 in0.0 mm 0.12 in3.0 mm
02:10 PM 40.5°F4.7°C 31.8°F-0.1°C 71% 5.5 mph WSW8.9 kmh WSW 6.6 mph10.6 kmh 29.41 in995.9 mb 0.00 in0.0 mm 0.00 in0.0 mm 0.12 in3.0 mm
02:00 PM 40.5°F4.7°C 32.1°F0.1°C 72% 6.7 mph SW10.8 kmh SW 7.6 mph12.2 kmh 29.41 in995.9 mb 0.00 in0.0 mm 0.00 in0.0 mm 0.12 in3.0 mm
01:50 PM 40.6°F4.8°C 32.0°F0.0°C 71% 7.5 mph WSW12.1 kmh WSW 8.4 mph13.5 kmh 29.42 in996.3 mb 0.00 in0.0 mm 0.00 in0.0 mm 0.12 in3.0 mm
01:40 PM 40.8°F4.9°C 32.5°F0.3°C 72% 7.3 mph SW11.7 kmh SW 10.1 mph16.3 kmh 29.43 in996.6 mb 0.00 in0.0 mm 0.00 in0.0 mm 0.12 in3.0 mm
01:30 PM 40.5°F4.7°C 32.1°F0.1°C 72% 6.4 mph SW10.3 kmh SW 7.6 mph12.2 kmh 29.43 in996.6 mb 0.00 in0.0 mm 0.00 in0.0 mm 0.12 in3.0 mm
01:20 PM 40.5°F4.7°C 32.1°F0.1°C 72% 6.9 mph SW11.1 kmh SW 8.4 mph13.5 kmh 29.43 in996.6 mb 0.00 in0.0 mm 0.00 in0.0 mm 0.12 in3.0 mm
01:10 PM 41.2°F5.1°C 33.2°F0.7°C 73% 7.6 mph SW12.2 kmh SW 7.6 mph12.2 kmh 29.43 in996.6 mb 0.00 in0.0 mm 0.00 in0.0 mm 0.12 in3.0 mm
01:00 PM 41.2°F5.1°C 33.5°F0.8°C 74% 5.8 mph SW9.3 kmh SW 8.4 mph13.5 kmh 29.44 in997.0 mb 0.00 in0.0 mm 0.00 in0.0 mm 0.12 in3.0 mm
12:50 PM 41.0°F5.0°C 33.3°F0.7°C 74% 5.8 mph S9.3 kmh S 6.6 mph10.6 kmh 29.44 in997.0 mb 0.00 in0.0 mm 0.00 in0.0 mm 0.12 in3.0 mm
12:40 PM 40.6°F4.8°C 33.0°F0.6°C 74% 7.4 mph SW11.9 kmh SW 10.1 mph16.3 kmh 29.44 in997.0 mb 0.00 in0.0 mm 0.00 in0.0 mm 0.12 in3.0 mm
12:30 PM 40.5°F4.7°C 32.8°F0.4°C 74% 8.2 mph SW13.2 kmh SW 9.1 mph14.6 kmh 29.45 in997.3 mb 0.00 in0.0 mm 0.00 in0.0 mm 0.12 in3.0 mm
12:20 PM 40.8°F4.9°C 33.5°F0.8°C 75% 7.5 mph SSW12.1 kmh SSW 8.4 mph13.5 kmh 29.45 in997.3 mb 0.00 in0.0 mm 0.00 in0.0 mm 0.12 in3.0 mm
12:10 PM 40.5°F4.7°C 33.2°F0.7°C 75% 8.3 mph SW13.4 kmh SW 10.1 mph16.3 kmh 29.46 in997.6 mb 0.00 in0.0 mm 0.00 in0.0 mm 0.12 in3.0 mm
12:00 PM 40.3°F4.6°C 33.3°F0.7°C 76% 9.1 mph SW14.6 kmh SW 13.3 mph21.4 kmh 29.46 in997.6 mb 0.00 in0.0 mm 0.00 in0.0 mm 0.12 in3.0 mm
11:50 AM 40.3°F4.6°C 34.0°F1.1°C 78% 8.2 mph WSW13.2 kmh WSW 9.1 mph14.6 kmh 29.46 in997.6 mb 0.00 in0.0 mm 0.00 in0.0 mm 0.12 in3.0 mm
11:40 AM 39.7°F4.3°C 34.1°F1.2°C 80% 10.4 mph SW16.7 kmh SW 10.8 mph17.4 kmh 29.46 in997.6 mb 0.00 in0.0 mm 0.00 in0.0 mm 0.12 in3.0 mm
11:30 AM 39.6°F4.2°C 34.2°F1.2°C 81% 6.9 mph WSW11.1 kmh WSW 7.6 mph12.2 kmh 29.46 in997.6 mb 0.00 in0.0 mm 0.00 in0.0 mm 0.12 in3.0 mm
11:20 AM 38.8°F3.8°C 33.8°F1.0°C 82% 8.1 mph SSE13.0 kmh SSE 9.1 mph14.6 kmh 29.46 in997.6 mb 0.00 in0.0 mm 0.00 in0.0 mm 0.12 in3.0 mm
11:10 AM 38.7°F3.7°C 33.6°F0.9°C 82% 10.7 mph SE17.2 kmh SE 10.1 mph16.3 kmh 29.47 in998.0 mb 0.00 in0.0 mm 0.00 in0.0 mm 0.12 in3.0 mm
11:00 AM 37.9°F3.3°C 33.2°F0.7°C 83% 9.0 mph SW14.5 kmh SW 10.8 mph17.4 kmh 29.47 in998.0 mb 0.00 in0.0 mm 0.00 in0.0 mm 0.12 in3.0 mm
10:50 AM 37.0°F2.8°C 32.7°F0.4°C 84% 8.2 mph SSW13.2 kmh SSW 9.1 mph14.6 kmh 29.47 in998.0 mb 0.00 in0.0 mm 0.00 in0.0 mm 0.12 in3.0 mm
10:40 AM 37.4°F3.0°C 33.3°F0.7°C 85% 8.3 mph SW13.4 kmh SW 11.8 mph19.0 kmh 29.48 in998.3 mb 0.00 in0.0 mm 0.00 in0.0 mm 0.12 in3.0 mm
10:30 AM 36.9°F2.7°C 32.8°F0.4°C 85% 7.3 mph SW11.7 kmh SW 10.8 mph17.4 kmh 29.48 in998.3 mb 0.00 in0.0 mm 0.00 in0.0 mm 0.12 in3.0 mm
10:20 AM 36.0°F2.2°C 31.9°F-0.1°C 85% 6.0 mph SW9.7 kmh SW 6.6 mph10.6 kmh 29.48 in998.3 mb 0.00 in0.0 mm 0.00 in0.0 mm 0.12 in3.0 mm
10:10 AM 36.0°F2.2°C 31.9°F-0.1°C 85% 6.5 mph WSW10.5 kmh WSW 6.6 mph10.6 kmh 29.48 in998.3 mb 0.00 in0.0 mm 0.00 in0.0 mm 0.12 in3.0 mm
10:00 AM 35.2°F1.8°C 31.2°F-0.4°C 85% 5.6 mph SW9.0 kmh SW 5.9 mph9.5 kmh 29.48 in998.3 mb 0.00 in0.0 mm 0.00 in0.0 mm 0.12 in3.0 mm
09:50 AM 34.9°F1.6°C 30.8°F-0.7°C 85% 4.6 mph SW7.4 kmh SW 5.9 mph9.5 kmh 29.48 in998.3 mb 0.00 in0.0 mm 0.00 in0.0 mm 0.12 in3.0 mm
09:40 AM 34.3°F1.3°C 30.3°F-0.9°C 85% 5.5 mph S8.9 kmh S 8.4 mph13.5 kmh 29.48 in998.3 mb 0.00 in0.0 mm 0.00 in0.0 mm 0.12 in3.0 mm
09:30 AM 33.8°F1.0°C 29.8°F-1.2°C 85% 5.0 mph SSW8.0 kmh SSW 7.6 mph12.2 kmh 29.49 in998.6 mb 0.00 in0.0 mm 0.00 in0.0 mm 0.12 in3.0 mm
09:20 AM 33.4°F0.8°C 29.1°F-1.6°C 84% 5.1 mph SW8.2 kmh SW 6.6 mph10.6 kmh 29.48 in998.3 mb 0.00 in0.0 mm 0.00 in0.0 mm 0.12 in3.0 mm
09:10 AM 33.1°F0.6°C 28.8°F-1.8°C 84% 4.4 mph SW7.1 kmh SW 4.9 mph7.9 kmh 29.48 in998.3 mb 0.00 in0.0 mm 0.00 in0.0 mm 0.12 in3.0 mm
09:00 AM 33.1°F0.6°C 28.8°F-1.8°C 84% 4.0 mph SW6.4 kmh SW 4.9 mph7.9 kmh 29.49 in998.6 mb 0.00 in0.0 mm 0.00 in0.0 mm 0.12 in3.0 mm
08:50 AM 32.9°F0.5°C 28.6°F-1.9°C 84% 5.6 mph SW9.0 kmh SW 7.6 mph12.2 kmh 29.48 in998.3 mb 0.00 in0.0 mm 0.00 in0.0 mm 0.12 in3.0 mm
08:40 AM 32.9°F0.5°C 28.6°F-1.9°C 84% 5.0 mph SSW8.0 kmh SSW 4.9 mph7.9 kmh 29.49 in998.6 mb 0.00 in0.0 mm 0.00 in0.0 mm 0.12 in3.0 mm
08:30 AM 32.9°F0.5°C 28.6°F-1.9°C 84% 5.2 mph SW8.4 kmh SW 5.9 mph9.5 kmh 29.48 in998.3 mb 0.00 in0.0 mm 0.00 in0.0 mm 0.12 in3.0 mm
08:20 AM 32.7°F0.4°C 28.4°F-2.0°C 84% 5.2 mph SW8.4 kmh SW 4.9 mph7.9 kmh 29.48 in998.3 mb 0.00 in0.0 mm 0.00 in0.0 mm 0.12 in3.0 mm
08:10 AM 32.5°F0.3°C 28.2°F-2.1°C 84% 4.0 mph SW6.4 kmh SW 4.9 mph7.9 kmh 29.48 in998.3 mb 0.00 in0.0 mm 0.00 in0.0 mm 0.12 in3.0 mm
08:00 AM 32.7°F0.4°C 28.4°F-2.0°C 84% 3.2 mph SW5.1 kmh SW 3.4 mph5.5 kmh 29.49 in998.6 mb 0.00 in0.0 mm 0.00 in0.0 mm 0.12 in3.0 mm
07:50 AM 32.9°F0.5°C 28.6°F-1.9°C 84% 3.1 mph W5.0 kmh W 4.2 mph6.8 kmh 29.49 in998.6 mb 0.00 in0.0 mm 0.00 in0.0 mm 0.12 in3.0 mm
07:40 AM 33.3°F0.7°C 28.9°F-1.7°C 84% 4.4 mph SW7.1 kmh SW 6.6 mph10.6 kmh 29.49 in998.6 mb 0.00 in0.0 mm 0.00 in0.0 mm 0.12 in3.0 mm
07:30 AM 33.4°F0.8°C 29.1°F-1.6°C 84% 5.7 mph S9.2 kmh S 7.6 mph12.2 kmh 29.49 in998.6 mb 0.00 in0.0 mm 0.00 in0.0 mm 0.12 in3.0 mm
07:20 AM 33.6°F0.9°C 29.3°F-1.5°C 84% 4.4 mph SW7.1 kmh SW 4.9 mph7.9 kmh 29.49 in998.6 mb 0.00 in0.0 mm 0.00 in0.0 mm 0.12 in3.0 mm
07:10 AM 33.8°F1.0°C 29.5°F-1.4°C 84% 4.2 mph SE6.8 kmh SE 4.2 mph6.8 kmh 29.49 in998.6 mb 0.00 in0.0 mm 0.00 in0.0 mm 0.12 in3.0 mm
07:00 AM 34.2°F1.2°C 29.8°F-1.2°C 84% 5.7 mph SSW9.2 kmh SSW 5.9 mph9.5 kmh 29.49 in998.6 mb 0.00 in0.0 mm 0.00 in0.0 mm 0.12 in3.0 mm
06:50 AM 34.5°F1.4°C 30.5°F-0.8°C 85% 5.6 mph SW9.0 kmh SW 5.9 mph9.5 kmh 29.49 in998.6 mb 0.00 in0.0 mm 0.00 in0.0 mm 0.12 in3.0 mm
06:40 AM 34.9°F1.6°C 30.8°F-0.7°C 85% 5.7 mph SW9.2 kmh SW 6.6 mph10.6 kmh 29.49 in998.6 mb 0.00 in0.0 mm 0.00 in0.0 mm 0.12 in3.0 mm
06:30 AM 35.2°F1.8°C 31.2°F-0.4°C 85% 4.2 mph S6.8 kmh S 6.6 mph10.6 kmh 29.49 in998.6 mb 0.00 in0.0 mm 0.00 in0.0 mm 0.12 in3.0 mm
06:20 AM 35.4°F1.9°C 31.4°F-0.3°C 85% 4.5 mph S7.2 kmh S 6.6 mph10.6 kmh 29.49 in998.6 mb 0.00 in0.0 mm 0.00 in0.0 mm 0.12 in3.0 mm
06:10 AM 35.6°F2.0°C 31.5°F-0.3°C 85% 4.8 mph SSW7.7 kmh SSW 4.2 mph6.8 kmh 29.49 in998.6 mb 0.00 in0.0 mm 0.00 in0.0 mm 0.12 in3.0 mm
06:00 AM 36.0°F2.2°C 31.9°F-0.1°C 85% 4.1 mph SE6.6 kmh SE 4.2 mph6.8 kmh 29.49 in998.6 mb 0.00 in0.0 mm 0.00 in0.0 mm 0.12 in3.0 mm
05:50 AM 36.1°F2.3°C 32.1°F0.1°C 85% 5.2 mph SW8.4 kmh SW 5.9 mph9.5 kmh 29.50 in999.0 mb 0.00 in0.0 mm 0.00 in0.0 mm 0.12 in3.0 mm
05:40 AM 36.3°F2.4°C 32.5°F0.3°C 86% 5.1 mph SSW8.2 kmh SSW 6.6 mph10.6 kmh 29.50 in999.0 mb 0.00 in0.0 mm 0.00 in0.0 mm 0.12 in3.0 mm
05:30 AM 36.7°F2.6°C 32.9°F0.5°C 86% 4.8 mph SW7.7 kmh SW 6.6 mph10.6 kmh 29.50 in999.0 mb 0.00 in0.0 mm 0.00 in0.0 mm 0.12 in3.0 mm
05:20 AM 36.9°F2.7°C 33.1°F0.6°C 86% 4.1 mph SW6.6 kmh SW 4.2 mph6.8 kmh 29.50 in999.0 mb 0.00 in0.0 mm 0.00 in0.0 mm 0.12 in3.0 mm
05:10 AM 37.2°F2.9°C 33.4°F0.8°C 86% 4.6 mph SW7.4 kmh SW 5.9 mph9.5 kmh 29.50 in999.0 mb 0.00 in0.0 mm 0.00 in0.0 mm 0.12 in3.0 mm
05:00 AM 37.4°F3.0°C 33.6°F0.9°C 86% 4.1 mph WSW6.6 kmh WSW 4.2 mph6.8 kmh 29.50 in999.0 mb 0.00 in0.0 mm 0.00 in0.0 mm 0.12 in3.0 mm
04:50 AM 37.6°F3.1°C 33.8°F1.0°C 86% 4.1 mph SW6.6 kmh SW 4.9 mph7.9 kmh 29.50 in999.0 mb 0.00 in0.0 mm 0.00 in0.0 mm 0.12 in3.0 mm
04:40 AM 37.9°F3.3°C 34.1°F1.2°C 86% 5.6 mph SW9.0 kmh SW 6.6 mph10.6 kmh 29.50 in999.0 mb 0.00 in0.0 mm 0.00 in0.0 mm 0.12 in3.0 mm
04:30 AM 38.1°F3.4°C 34.6°F1.4°C 87% 5.5 mph S8.9 kmh S 6.6 mph10.6 kmh 29.50 in999.0 mb 0.00 in0.0 mm 0.00 in0.0 mm 0.12 in3.0 mm
04:20 AM 38.3°F3.5°C 34.8°F1.6°C 87% 4.9 mph S7.9 kmh S 5.9 mph9.5 kmh 29.50 in999.0 mb 0.00 in0.0 mm 0.00 in0.0 mm 0.12 in3.0 mm
04:10 AM 38.5°F3.6°C 34.9°F1.6°C 87% 6.2 mph SW10.0 kmh SW 8.4 mph13.5 kmh 29.50 in999.0 mb 0.01 in0.3 mm 0.00 in0.0 mm 0.12 in3.0 mm
04:00 AM 38.8°F3.8°C 35.3°F1.8°C 87% 6.8 mph S10.9 kmh S 7.6 mph12.2 kmh 29.51 in999.3 mb 0.02 in0.5 mm 0.00 in0.0 mm 0.12 in3.0 mm
03:50 AM 39.0°F3.9°C 35.5°F1.9°C 87% 9.8 mph SSW15.8 kmh SSW 10.8 mph17.4 kmh 29.51 in999.3 mb 0.02 in0.5 mm 0.00 in0.0 mm 0.12 in3.0 mm
03:40 AM 39.0°F3.9°C 35.5°F1.9°C 87% 12.6 mph SSE20.3 kmh SSE 14.3 mph23.0 kmh 29.51 in999.3 mb 0.04 in1.0 mm 0.00 in0.0 mm 0.12 in3.0 mm
03:30 AM 39.0°F3.9°C 35.5°F1.9°C 87% 17.8 mph S28.6 kmh S 18.5 mph29.8 kmh 29.50 in999.0 mb 0.04 in1.0 mm 0.00 in0.0 mm 0.12 in3.0 mm
03:20 AM 38.8°F3.8°C 35.0°F1.7°C 86% 18.1 mph S29.1 kmh S 18.5 mph29.8 kmh 29.50 in999.0 mb 0.05 in1.3 mm 0.06 in1.5 mm 0.12 in3.0 mm
03:10 AM 38.8°F3.8°C 35.0°F1.7°C 86% 20.5 mph S33.0 kmh S 16.0 mph25.7 kmh 29.51 in999.3 mb 0.04 in1.0 mm 0.12 in3.0 mm 0.11 in2.8 mm
03:00 AM 38.8°F3.8°C 35.0°F1.7°C 86% 18.3 mph SSW29.5 kmh SSW 17.5 mph28.2 kmh 29.52 in999.7 mb 0.02 in0.5 mm 0.00 in0.0 mm 0.09 in2.3 mm
02:50 AM 38.8°F3.8°C 35.0°F1.7°C 86% 20.9 mph SSE33.6 kmh SSE 20.2 mph32.5 kmh 29.52 in999.7 mb 0.02 in0.5 mm 0.00 in0.0 mm 0.09 in2.3 mm
02:40 AM 38.8°F3.8°C 35.0°F1.7°C 86% 18.2 mph S29.3 kmh S 16.7 mph26.9 kmh 29.53 in1000.0 mb 0.02 in0.5 mm 0.00 in0.0 mm 0.08 in2.0 mm
02:30 AM 38.8°F3.8°C 35.0°F1.7°C 86% 20.4 mph S32.8 kmh S 18.5 mph29.8 kmh 29.55 in1000.7 mb 0.02 in0.5 mm 0.00 in0.0 mm 0.08 in2.0 mm
02:20 AM 38.8°F3.8°C 35.0°F1.7°C 86% 22.8 mph SSW36.7 kmh SSW 20.9 mph33.6 kmh 29.55 in1000.7 mb 0.02 in0.5 mm 0.00 in0.0 mm 0.07 in1.8 mm
02:10 AM 38.8°F3.8°C 35.0°F1.7°C 86% 20.2 mph SSW32.5 kmh SSW 22.6 mph36.4 kmh 29.55 in1000.7 mb 0.05 in1.3 mm 0.00 in0.0 mm 0.07 in1.8 mm
02:00 AM 38.7°F3.7°C 34.8°F1.6°C 86% 20.8 mph S33.5 kmh S 20.9 mph33.6 kmh 29.56 in1001.0 mb 0.05 in1.3 mm 0.00 in0.0 mm 0.07 in1.8 mm
01:50 AM 38.5°F3.6°C 34.4°F1.3°C 85% 21.3 mph SE34.3 kmh SE 18.5 mph29.8 kmh 29.56 in1001.0 mb 0.06 in1.5 mm 0.06 in1.5 mm 0.07 in1.8 mm
01:40 AM 38.5°F3.6°C 34.4°F1.3°C 85% 22.0 mph S35.4 kmh S 20.9 mph33.6 kmh 29.57 in1001.4 mb 0.05 in1.3 mm 0.00 in0.0 mm 0.06 in1.5 mm
01:30 AM 38.5°F3.6°C 34.1°F1.2°C 84% 22.1 mph SSE35.6 kmh SSE 25.8 mph41.5 kmh 29.58 in1001.7 mb 0.05 in1.3 mm 0.00 in0.0 mm 0.05 in1.3 mm
01:20 AM 38.5°F3.6°C 34.1°F1.2°C 84% 22.0 mph S35.4 kmh S 23.4 mph37.7 kmh 29.59 in1002.0 mb 0.05 in1.3 mm 0.18 in4.6 mm 0.05 in1.3 mm
01:10 AM 38.5°F3.6°C 34.1°F1.2°C 84% 21.8 mph S35.1 kmh S 20.9 mph33.6 kmh 29.61 in1002.7 mb 0.02 in0.5 mm 0.00 in0.0 mm 0.02 in0.5 mm
01:00 AM 38.5°F3.6°C 33.8°F1.0°C 83% 22.9 mph S36.9 kmh S 21.7 mph34.9 kmh 29.61 in1002.7 mb 0.02 in0.5 mm 0.01 in0.3 mm 0.02 in0.5 mm
12:50 AM 38.5°F3.6°C 33.5°F0.8°C 82% 21.0 mph S33.8 kmh S 24.4 mph39.3 kmh 29.61 in1002.7 mb 0.01 in0.3 mm 0.00 in0.0 mm 0.01 in0.3 mm
12:40 AM 38.7°F3.7°C 33.3°F0.7°C 81% 20.9 mph S33.6 kmh S 24.4 mph39.3 kmh 29.62 in1003.0 mb 0.01 in0.3 mm 0.06 in1.5 mm 0.01 in0.3 mm
12:30 AM 38.7°F3.7°C 33.0°F0.6°C 80% 20.2 mph SSE32.5 kmh SSE 20.9 mph33.6 kmh 29.63 in1003.4 mb 0.00 in0.0 mm 0.00 in0.0 mm 0.00 in0.0 mm
12:20 AM 38.7°F3.7°C 33.0°F0.6°C 80% 19.5 mph S31.4 kmh S 17.5 mph28.2 kmh 29.64 in1003.7 mb 0.00 in0.0 mm 0.00 in0.0 mm 0.00 in0.0 mm
12:10 AM 38.7°F3.7°C 33.0°F0.6°C 80% 18.5 mph S29.8 kmh S 23.4 mph37.7 kmh 29.65 in1004.1 mb 0.00 in0.0 mm 0.00 in0.0 mm 0.00 in0.0 mm
12:00 AM 38.5°F3.6°C 32.5°F0.3°C 79% 20.5 mph S33.0 kmh S 18.5 mph29.8 kmh 29.66 in1004.4 mb 0.00 in0.0 mm 0.00 in0.0 mm 0.00 in0.0 mm